createdAt,value
2019-06-20T00:01:43.014Z,75.99
2019-06-20T00:04:17.600Z,76.18
2019-06-20T00:06:52.019Z,76.48
2019-06-20T00:09:26.472Z,76.52
2019-06-20T00:12:00.966Z,76.74
2019-06-20T00:14:35.503Z,76.92
2019-06-20T00:17:10.003Z,77.34
2019-06-20T00:19:45.526Z,77.35
2019-06-20T00:22:20.077Z,77.14
2019-06-20T00:24:54.537Z,77.46
2019-06-20T00:27:28.946Z,77.15
2019-06-20T00:30:03.558Z,77.39
2019-06-20T00:32:39.249Z,77.82
2019-06-20T00:35:14.046Z,77.86
2019-06-20T00:37:48.526Z,78.01
2019-06-20T00:40:23.128Z,78.42
2019-06-20T00:42:58.871Z,78.34
2019-06-20T00:45:33.317Z,78.40
2019-06-20T00:48:07.888Z,78.63
2019-06-20T00:50:42.350Z,78.45
2019-06-20T00:53:16.845Z,78.64
2019-06-20T00:55:51.439Z,78.60
2019-06-20T00:58:25.934Z,78.78
2019-06-20T01:01:00.401Z,79.03
2019-06-20T01:03:34.836Z,79.16
2019-06-20T01:06:09.486Z,79.19
2019-06-20T01:08:43.981Z,79.42
2019-06-20T01:11:18.502Z,79.43
2019-06-20T01:13:53.103Z,79.39
2019-06-20T01:16:27.517Z,79.49
2019-06-20T01:19:01.951Z,79.63
2019-06-20T01:21:36.408Z,79.87
2019-06-20T01:24:10.900Z,80.12
2019-06-20T01:26:45.356Z,80.20
2019-06-20T01:29:19.772Z,80.34
2019-06-20T01:31:54.274Z,80.58
2019-06-20T01:34:28.768Z,80.77
2019-06-20T01:37:03.299Z,81.16
2019-06-20T01:39:38.801Z,81.28
2019-06-20T01:42:13.399Z,81.36
2019-06-20T01:44:47.966Z,81.45
2019-06-20T01:47:22.504Z,81.68
2019-06-20T01:49:57.021Z,81.92
2019-06-20T01:52:31.538Z,81.90
2019-06-20T01:55:06.184Z,81.98
2019-06-20T01:57:40.707Z,82.30
2019-06-20T02:00:27.320Z,82.37
2019-06-20T02:03:02.076Z,82.39
2019-06-20T02:05:36.761Z,82.50
2019-06-20T02:08:11.481Z,82.57
2019-06-20T02:10:46.098Z,82.66
2019-06-20T02:13:21.882Z,82.89
2019-06-20T02:15:56.345Z,82.89
2019-06-20T02:18:30.811Z,82.86
2019-06-20T02:21:06.866Z,82.90
2019-06-20T02:23:43.076Z,83.00
2019-06-20T02:26:17.536Z,83.01
2019-06-20T02:28:51.994Z,83.07
2019-06-20T02:31:26.503Z,83.03
2019-06-20T02:34:00.956Z,83.17
2019-06-20T02:36:35.462Z,83.08
2019-06-20T02:39:09.896Z,83.08
2019-06-20T02:41:44.325Z,83.12
2019-06-20T02:44:30.024Z,83.17
2019-06-20T02:46:55.053Z,83.20
2019-06-20T02:49:29.489Z,83.26
2019-06-20T02:52:04.260Z,83.29
2019-06-20T02:54:38.955Z,83.23
2019-06-20T02:57:13.442Z,83.11
2019-06-20T02:59:47.991Z,82.92
2019-06-20T03:02:22.408Z,82.87
2019-06-20T03:04:56.935Z,82.74
2019-06-20T03:07:31.421Z,82.69
2019-06-20T03:10:10.183Z,82.61
2019-06-20T03:12:44.697Z,82.46
2019-06-20T03:15:19.308Z,82.32
2019-06-20T03:17:53.846Z,82.22
2019-06-20T03:20:28.382Z,82.07
2019-06-20T03:23:03.003Z,82.11
2019-06-20T03:25:37.525Z,82.17
2019-06-20T03:28:12.008Z,81.95
2019-06-20T03:30:46.771Z,81.78
2019-06-20T03:33:21.314Z,81.60
2019-06-20T03:35:55.754Z,81.42
2019-06-20T03:38:30.173Z,81.18
2019-06-20T03:41:04.761Z,81.09
2019-06-20T03:43:39.189Z,80.74
2019-06-20T03:46:14.866Z,80.80
2019-06-20T03:48:49.436Z,80.58
2019-06-20T03:51:23.875Z,80.53
2019-06-20T03:53:58.293Z,80.44
2019-06-20T03:56:32.756Z,80.23
2019-06-20T03:59:07.236Z,80.13
2019-06-20T04:01:41.761Z,79.96
2019-06-20T04:04:17.853Z,79.76
2019-06-20T04:06:52.445Z,79.43
2019-06-20T04:09:26.945Z,79.32
2019-06-20T04:12:01.424Z,79.23
2019-06-20T04:14:35.840Z,79.13
2019-06-20T04:17:10.363Z,78.72
2019-06-20T04:19:44.794Z,78.50
2019-06-20T04:22:19.329Z,78.34
2019-06-20T04:24:53.838Z,78.34
2019-06-20T04:27:28.349Z,78.22
2019-06-20T04:30:02.913Z,77.95
2019-06-20T04:32:37.466Z,77.67
2019-06-20T04:35:12.027Z,77.37
2019-06-20T04:37:46.462Z,77.12
2019-06-20T04:40:21.204Z,76.85
2019-06-20T04:42:55.651Z,76.77
2019-06-20T04:45:35.484Z,76.65
2019-06-20T04:48:09.590Z,76.35
2019-06-20T04:50:44.140Z,76.36
2019-06-20T04:53:19.740Z,75.81
2019-06-20T04:55:54.337Z,75.51
2019-06-20T04:58:28.734Z,75.31
2019-06-20T05:01:03.294Z,75.00
2019-06-20T05:03:37.963Z,74.70
2019-06-20T05:06:12.367Z,74.38
2019-06-20T05:08:46.833Z,74.07
2019-06-20T05:12:22.390Z,73.89
2019-06-20T05:14:24.042Z,73.82
2019-06-20T05:16:58.462Z,73.41
2019-06-20T05:19:34.138Z,73.35
2019-06-20T05:22:08.611Z,73.11
2019-06-20T05:24:43.151Z,72.69
2019-06-20T05:27:18.132Z,72.75
2019-06-20T05:29:52.667Z,72.46
2019-06-20T05:32:27.268Z,72.60
2019-06-20T05:35:03.113Z,72.84
2019-06-20T05:37:37.872Z,72.54
2019-06-20T05:40:13.985Z,72.86
2019-06-20T05:42:48.460Z,72.83
2019-06-20T05:45:23.223Z,72.80
2019-06-20T05:47:57.868Z,73.06
2019-06-20T05:50:33.439Z,72.96
2019-06-20T05:53:07.922Z,72.71
2019-06-20T05:55:42.390Z,72.46
2019-06-20T05:58:16.825Z,72.50
2019-06-20T06:00:51.489Z,72.14
2019-06-20T06:03:25.901Z,72.37
2019-06-20T06:06:00.348Z,72.24
2019-06-20T06:08:34.834Z,71.81
2019-06-20T06:11:09.345Z,71.58
2019-06-20T06:13:43.851Z,71.32
2019-06-20T06:16:26.131Z,71.25
2019-06-20T06:18:55.080Z,70.87
2019-06-20T06:21:29.784Z,70.39
2019-06-20T06:24:04.504Z,70.45
2019-06-20T06:26:38.939Z,70.67
2019-06-20T06:29:13.450Z,70.66
2019-06-20T06:31:47.958Z,70.86
2019-06-20T06:34:25.171Z,70.76
2019-06-20T06:36:59.678Z,70.66
2019-06-20T06:39:35.210Z,70.06
2019-06-20T06:42:09.622Z,69.59
2019-06-20T06:44:45.788Z,69.95
2019-06-20T06:47:20.291Z,70.08
2019-06-20T06:49:54.773Z,69.21
2019-06-20T06:52:29.217Z,68.09
2019-06-20T06:55:04.201Z,66.65
2019-06-20T06:57:38.770Z,66.63
2019-06-20T07:00:15.365Z,65.62
2019-06-20T07:02:49.788Z,65.56
2019-06-20T07:05:24.383Z,65.17
2019-06-20T07:07:58.895Z,64.70
2019-06-20T07:10:33.578Z,65.21
2019-06-20T07:13:08.070Z,64.93
2019-06-20T07:15:42.685Z,64.80
2019-06-20T07:18:17.335Z,64.05
2019-06-20T07:20:51.787Z,62.70
2019-06-20T07:23:26.286Z,61.80
2019-06-20T07:26:03.979Z,60.99
2019-06-20T07:28:38.553Z,61.68
2019-06-20T07:31:13.012Z,63.01
2019-06-20T07:33:47.525Z,63.49
2019-06-20T07:36:22.053Z,63.36
2019-06-20T07:38:56.479Z,64.58
2019-06-20T07:41:31.103Z,65.67
2019-06-20T07:44:05.653Z,66.13
2019-06-20T07:46:40.127Z,66.95
2019-06-20T07:49:14.644Z,67.33
2019-06-20T07:51:56.823Z,67.88
2019-06-20T07:54:34.626Z,68.23
2019-06-20T07:57:10.793Z,68.41
2019-06-20T07:59:45.225Z,68.64
2019-06-20T08:02:19.753Z,68.43
2019-06-20T08:04:54.341Z,68.18
2019-06-20T08:07:28.855Z,68.10
2019-06-20T08:10:12.983Z,68.24
2019-06-20T08:12:47.499Z,68.35
2019-06-20T08:15:24.049Z,68.40
2019-06-20T08:17:58.530Z,68.66
2019-06-20T08:20:33.101Z,69.19
2019-06-20T08:23:08.731Z,69.37
2019-06-20T08:25:43.305Z,68.48
2019-06-20T08:28:17.774Z,67.34
2019-06-20T08:30:52.394Z,66.27
2019-06-20T08:33:26.929Z,65.72
2019-06-20T08:36:02.245Z,65.97
2019-06-20T08:38:37.284Z,66.18
2019-06-20T08:41:11.721Z,66.40
2019-06-20T08:43:46.185Z,66.69
2019-06-20T08:46:20.762Z,66.45
2019-06-20T08:48:56.599Z,65.26
2019-06-20T08:51:31.497Z,64.39
2019-06-20T08:54:06.184Z,63.02
2019-06-20T08:56:40.756Z,61.78
2019-06-20T08:59:24.352Z,61.10
2019-06-20T09:01:51.572Z,60.84
2019-06-20T09:04:26.023Z,60.14
2019-06-20T09:07:00.698Z,59.52
2019-06-20T09:09:35.687Z,59.19
2019-06-20T09:12:10.178Z,58.08
2019-06-20T09:14:44.657Z,58.25
2019-06-20T09:17:19.109Z,58.45
2019-06-20T09:19:54.408Z,58.98
2019-06-20T09:22:28.971Z,59.05
2019-06-20T09:25:04.786Z,58.41
2019-06-20T09:30:46.740Z,59.19
2019-06-20T09:33:21.316Z,58.98
2019-06-20T09:35:57.383Z,58.22
2019-06-20T09:38:32.928Z,57.48
2019-06-20T09:41:07.781Z,57.01
2019-06-20T09:43:43.387Z,57.09
2019-06-20T09:46:17.856Z,56.92
2019-06-20T09:48:53.920Z,56.55
2019-06-20T09:51:28.411Z,57.07
2019-06-20T09:54:02.931Z,57.36
2019-06-20T09:56:37.550Z,57.54
2019-06-20T09:59:26.907Z,57.33
2019-06-20T10:01:50.043Z,56.10
2019-06-20T10:04:24.398Z,54.55
2019-06-20T10:06:58.926Z,55.01
2019-06-20T10:09:33.449Z,54.98
2019-06-20T10:12:07.963Z,54.59
2019-06-20T10:14:42.489Z,54.37
2019-06-20T10:17:17.184Z,53.77
2019-06-20T10:19:52.084Z,53.86
2019-06-20T10:22:26.830Z,53.67
2019-06-20T10:25:01.338Z,53.52
2019-06-20T10:27:36.287Z,53.69
2019-06-20T10:30:14.614Z,54.11
2019-06-20T10:32:50.993Z,53.73
2019-06-20T10:35:25.776Z,53.11
2019-06-20T10:38:00.269Z,52.62
2019-06-20T10:40:34.788Z,52.70
2019-06-20T10:43:09.313Z,52.85
2019-06-20T10:45:44.667Z,52.95
2019-06-20T10:48:20.277Z,52.33
2019-06-20T10:50:56.425Z,53.11
2019-06-20T10:53:30.950Z,53.08
2019-06-20T10:56:05.499Z,53.50
2019-06-20T10:58:41.461Z,52.94
2019-06-20T11:01:16.318Z,52.61
2019-06-20T11:03:50.958Z,51.75
2019-06-20T11:06:25.449Z,51.38
2019-06-20T11:08:59.992Z,50.58
2019-06-20T11:11:34.490Z,50.68
2019-06-20T11:14:09.920Z,50.47
2019-06-20T11:16:45.230Z,50.23
2019-06-20T11:19:19.929Z,50.91
2019-06-20T11:21:54.354Z,51.17
2019-06-20T11:24:28.832Z,50.82
2019-06-20T11:27:03.401Z,49.83
2019-06-20T11:29:38.025Z,49.15
2019-06-20T11:32:12.536Z,49.56
2019-06-20T11:34:47.544Z,49.67
2019-06-20T11:37:22.466Z,49.38
2019-06-20T11:39:57.062Z,49.12
2019-06-20T11:42:31.562Z,49.25
2019-06-20T11:45:08.162Z,48.61
2019-06-20T11:47:43.727Z,47.85
2019-06-20T11:50:18.555Z,48.51
2019-06-20T11:52:53.008Z,48.98
2019-06-20T11:55:27.625Z,49.46
2019-06-20T11:58:02.134Z,48.83
2019-06-20T12:00:36.641Z,47.61
2019-06-20T12:03:11.159Z,46.58
2019-06-20T12:05:47.266Z,46.57
2019-06-20T12:08:21.862Z,47.46
2019-06-20T12:10:56.366Z,47.64
2019-06-20T12:13:30.769Z,46.24
2019-06-20T12:16:05.579Z,46.41
2019-06-20T12:18:41.487Z,46.74
2019-06-20T12:21:16.295Z,47.75
2019-06-20T12:23:50.821Z,47.83
2019-06-20T12:26:25.361Z,48.06
2019-06-20T12:28:59.875Z,48.21
2019-06-20T12:31:34.413Z,48.63
2019-06-20T12:34:08.864Z,48.08
2019-06-20T12:36:44.405Z,47.79
2019-06-20T12:39:19.566Z,46.73
2019-06-20T12:41:54.169Z,44.93
2019-06-20T12:44:28.605Z,44.28
2019-06-20T12:47:03.154Z,45.00
2019-06-20T12:49:39.059Z,45.46
2019-06-20T12:52:13.881Z,46.51
2019-06-20T12:54:49.175Z,46.03
2019-06-20T12:57:23.795Z,46.67
2019-06-20T12:59:58.818Z,47.32
2019-06-20T13:02:33.320Z,47.25
2019-06-20T13:05:08.752Z,47.33
2019-06-20T13:07:44.208Z,48.15
2019-06-20T13:10:19.081Z,48.75
2019-06-20T13:12:53.611Z,49.41
2019-06-20T13:15:29.582Z,50.08
2019-06-20T13:18:04.301Z,50.35
2019-06-20T13:20:40.532Z,49.51
2019-06-20T13:23:15.009Z,49.77
2019-06-20T13:25:49.549Z,49.94
2019-06-20T13:28:24.072Z,50.06
2019-06-20T13:30:58.501Z,50.23
2019-06-20T13:33:32.931Z,50.62
2019-06-20T13:36:07.581Z,50.53
2019-06-20T13:38:42.754Z,50.49
2019-06-20T13:41:17.497Z,50.62
2019-06-20T13:43:52.110Z,50.55
2019-06-20T13:46:26.576Z,49.62
2019-06-20T13:49:01.112Z,49.07
2019-06-20T13:51:35.684Z,48.09
2019-06-20T13:54:10.212Z,48.21
2019-06-20T13:56:45.342Z,48.63
2019-06-20T13:59:19.827Z,49.43
2019-06-20T14:02:06.248Z,49.08
2019-06-20T14:04:30.641Z,48.64
2019-06-20T14:07:05.195Z,48.62
2019-06-20T14:09:39.706Z,48.07
2019-06-20T14:12:15.747Z,48.32
2019-06-20T14:14:50.438Z,47.71
2019-06-20T14:17:25.011Z,47.63
2019-06-20T14:19:59.472Z,46.70
2019-06-20T14:22:34.095Z,46.34
2019-06-20T14:25:09.591Z,46.43
2019-06-20T14:27:45.883Z,46.56
2019-06-20T14:30:21.174Z,47.00
2019-06-20T14:32:56.995Z,46.39
2019-06-20T14:35:31.568Z,45.38
2019-06-20T14:38:06.162Z,45.07
2019-06-20T14:40:43.586Z,45.62
2019-06-20T14:43:17.067Z,45.64
2019-06-20T14:45:51.517Z,45.52
2019-06-20T14:48:26.005Z,45.03
2019-06-20T14:51:00.809Z,44.95
2019-06-20T14:53:35.300Z,44.31
2019-06-20T14:56:09.831Z,43.48
2019-06-20T14:58:44.948Z,42.70
2019-06-20T15:01:19.536Z,41.56
2019-06-20T15:03:54.042Z,41.43
2019-06-20T15:06:28.488Z,42.14
2019-06-20T15:09:06.068Z,42.57
2019-06-20T15:11:41.951Z,42.89
2019-06-20T15:14:16.468Z,42.85
2019-06-20T15:16:51.292Z,43.38
2019-06-20T15:19:25.999Z,44.11
2019-06-20T15:22:00.436Z,44.25
2019-06-20T15:24:34.943Z,44.76
2019-06-20T15:27:09.366Z,45.03
2019-06-20T15:29:43.812Z,45.73
2019-06-20T15:32:18.327Z,46.00
2019-06-20T15:34:53.249Z,46.36
2019-06-20T15:37:32.788Z,46.84
2019-06-20T15:40:08.010Z,47.33
2019-06-20T15:42:42.472Z,47.91
2019-06-20T15:45:17.272Z,47.80
2019-06-20T15:47:51.798Z,48.21
2019-06-20T15:50:26.319Z,48.89
2019-06-20T15:53:01.855Z,48.80
2019-06-20T15:55:36.429Z,49.04
2019-06-20T15:58:10.916Z,49.04
2019-06-20T16:00:45.567Z,48.92
2019-06-20T16:03:20.092Z,48.52
2019-06-20T16:05:54.676Z,47.66
2019-06-20T16:08:29.207Z,46.27
2019-06-20T16:11:03.707Z,44.45
2019-06-20T16:13:38.149Z,43.13
2019-06-20T16:16:12.681Z,42.46
2019-06-20T16:18:47.131Z,43.13
2019-06-20T16:21:21.551Z,43.53
2019-06-20T16:23:56.112Z,43.89
2019-06-20T16:26:30.771Z,44.15
2019-06-20T16:29:05.322Z,44.76
2019-06-20T16:31:39.941Z,45.44
2019-06-20T16:34:14.512Z,45.43
2019-06-20T16:36:49.238Z,44.91
2019-06-20T16:39:23.774Z,44.68
2019-06-20T16:41:58.347Z,44.18
2019-06-20T16:44:32.943Z,44.12
2019-06-20T16:47:07.585Z,43.51
2019-06-20T16:49:42.056Z,44.39
2019-06-20T16:52:16.497Z,46.43
2019-06-20T16:54:50.943Z,48.81
2019-06-20T16:57:25.488Z,50.80
2019-06-20T16:59:59.933Z,52.46
2019-06-20T17:02:34.530Z,54.52
2019-06-20T17:05:09.412Z,55.79
2019-06-20T17:07:43.832Z,56.57
2019-06-20T17:10:19.228Z,57.11
2019-06-20T17:12:53.819Z,57.47
2019-06-20T17:15:28.589Z,57.54
2019-06-20T17:18:03.098Z,58.01
2019-06-20T17:20:37.531Z,59.53
2019-06-20T17:23:12.040Z,61.33
2019-06-20T17:25:46.630Z,63.25
2019-06-20T17:28:21.209Z,63.65
2019-06-20T17:30:56.023Z,64.18
2019-06-20T17:33:30.558Z,65.80
2019-06-20T17:36:17.894Z,66.01
2019-06-20T17:38:41.333Z,66.26
2019-06-20T17:41:17.179Z,67.41
2019-06-20T17:43:52.285Z,67.80
2019-06-20T17:46:26.884Z,68.19
2019-06-20T17:49:02.459Z,67.41
2019-06-20T17:51:37.009Z,67.13
2019-06-20T17:54:11.505Z,67.56
2019-06-20T17:56:45.969Z,66.75
2019-06-20T17:59:22.847Z,66.16
2019-06-20T18:01:56.993Z,65.17
2019-06-20T18:04:31.422Z,64.82
2019-06-20T18:07:05.980Z,64.71
2019-06-20T18:09:40.765Z,64.83
2019-06-20T18:12:16.797Z,65.45
2019-06-20T18:14:52.065Z,65.55
2019-06-20T18:17:26.666Z,64.87
2019-06-20T18:20:01.241Z,65.26
2019-06-20T18:22:37.411Z,65.12
2019-06-20T18:25:12.372Z,64.71
2019-06-20T18:27:46.971Z,63.59
2019-06-20T18:30:24.447Z,63.20
2019-06-20T18:32:58.984Z,62.81
2019-06-20T18:35:33.749Z,62.95
2019-06-20T18:38:08.337Z,63.59
2019-06-20T18:40:42.828Z,63.71
2019-06-20T18:43:17.393Z,64.15
2019-06-20T18:45:51.807Z,64.05
2019-06-20T18:48:26.327Z,64.48
2019-06-20T18:51:01.949Z,65.01
2019-06-20T18:53:36.514Z,65.73
2019-06-20T18:56:11.143Z,66.64
2019-06-20T18:58:46.674Z,66.36
2019-06-20T19:01:21.184Z,66.38
2019-06-20T19:03:55.826Z,66.48
2019-06-20T19:06:35.845Z,66.75
2019-06-20T19:09:09.250Z,66.28
2019-06-20T19:11:44.039Z,67.20
2019-06-20T19:14:18.685Z,67.20
2019-06-20T19:16:53.136Z,66.78
2019-06-20T19:19:27.645Z,67.15
2019-06-20T19:22:02.082Z,67.07
2019-06-20T19:24:36.638Z,67.01
2019-06-20T19:27:11.163Z,67.43
2019-06-20T19:29:45.614Z,67.69
2019-06-20T19:32:20.047Z,66.42
2019-06-20T19:35:02.326Z,66.33
2019-06-20T19:37:30.766Z,67.28
2019-06-20T19:40:07.447Z,67.63
2019-06-20T19:42:42.023Z,67.53
2019-06-20T19:45:17.706Z,67.51
2019-06-20T19:47:52.209Z,68.12
2019-06-20T19:50:26.983Z,69.18
2019-06-20T19:53:01.574Z,70.32
2019-06-20T19:55:36.829Z,71.12
2019-06-20T19:58:11.420Z,71.63
2019-06-20T20:00:46.194Z,72.09
2019-06-20T20:03:20.772Z,72.16
2019-06-20T20:05:58.373Z,72.35
2019-06-20T20:08:32.566Z,72.54
2019-06-20T20:11:07.086Z,72.83
2019-06-20T20:13:41.598Z,73.18
2019-06-20T20:16:16.132Z,73.47
2019-06-20T20:18:51.595Z,73.89
2019-06-20T20:21:26.126Z,73.96
2019-06-20T20:24:00.564Z,74.21
2019-06-20T20:26:35.090Z,74.29
2019-06-20T20:29:09.518Z,74.55
2019-06-20T20:31:44.079Z,74.71
2019-06-20T20:34:18.501Z,74.66
2019-06-20T20:36:53.252Z,74.73
2019-06-20T20:39:27.732Z,74.82
2019-06-20T20:42:02.258Z,74.76
2019-06-20T20:44:36.684Z,74.81
2019-06-20T20:47:11.195Z,74.77
2019-06-20T20:49:45.627Z,74.81
2019-06-20T20:52:21.650Z,74.91
2019-06-20T20:54:56.097Z,74.92
2019-06-20T20:57:30.618Z,75.11
2019-06-20T21:00:26.135Z,75.23
2019-06-20T21:03:00.655Z,75.16
2019-06-20T21:05:50.440Z,75.04
2019-06-20T21:08:11.527Z,75.19
2019-06-20T21:10:46.626Z,75.23
2019-06-20T21:13:21.218Z,75.14
2019-06-20T21:15:55.605Z,75.15
2019-06-20T21:18:30.126Z,74.98
2019-06-20T21:21:04.819Z,74.85
2019-06-20T21:23:39.333Z,74.74
2019-06-20T21:26:13.858Z,74.61
2019-06-20T21:28:48.306Z,74.34
2019-06-20T21:31:22.895Z,74.38
2019-06-20T21:33:57.408Z,72.86
2019-06-20T21:36:31.976Z,72.32
2019-06-20T21:39:08.469Z,71.76
2019-06-20T21:41:42.905Z,71.95
2019-06-20T21:44:17.445Z,73.22
2019-06-20T21:46:51.938Z,74.00
2019-06-20T21:49:26.381Z,74.97
2019-06-20T21:52:00.811Z,76.08
2019-06-20T21:54:35.387Z,77.29
2019-06-20T21:57:09.874Z,79.08
2019-06-20T21:59:44.429Z,80.31
2019-06-20T22:02:19.255Z,82.03
2019-06-20T22:04:54.870Z,82.92
2019-06-20T22:07:30.764Z,83.18
2019-06-20T22:10:07.653Z,83.52
2019-06-20T22:12:42.348Z,83.95
2019-06-20T22:15:17.377Z,84.64
2019-06-20T22:17:51.954Z,84.97
2019-06-20T22:20:27.459Z,85.27
2019-06-20T22:23:01.871Z,85.97
2019-06-20T22:25:36.600Z,86.17
2019-06-20T22:28:11.351Z,86.35
2019-06-20T22:30:51.840Z,86.67
2019-06-20T22:33:26.276Z,86.89
2019-06-20T22:36:00.742Z,87.12
2019-06-20T22:38:35.316Z,87.23
2019-06-20T22:41:10.370Z,87.32
2019-06-20T22:43:44.860Z,87.69
2019-06-20T22:46:19.315Z,87.84
2019-06-20T22:48:54.339Z,87.80
2019-06-20T22:51:28.782Z,88.01
2019-06-20T22:54:03.442Z,88.05
2019-06-20T22:56:38.259Z,87.98
2019-06-20T22:59:12.837Z,87.69
2019-06-20T23:01:47.296Z,87.85
2019-06-20T23:04:21.875Z,87.82
2019-06-20T23:06:57.119Z,87.83
2019-06-20T23:09:31.653Z,87.71
2019-06-20T23:12:06.207Z,87.63
2019-06-20T23:14:40.692Z,87.71
2019-06-20T23:17:15.201Z,87.71
2019-06-20T23:19:49.621Z,87.71
2019-06-20T23:22:24.212Z,87.75
2019-06-20T23:24:58.639Z,87.65
2019-06-20T23:27:33.261Z,87.75
2019-06-20T23:30:09.107Z,87.66
2019-06-20T23:32:43.582Z,87.33
2019-06-20T23:35:18.087Z,87.24
2019-06-20T23:37:52.548Z,87.35
2019-06-20T23:40:27.060Z,87.31
2019-06-20T23:43:01.603Z,87.26
2019-06-20T23:45:36.038Z,87.12
2019-06-20T23:48:10.491Z,87.01
2019-06-20T23:50:44.905Z,87.14
2019-06-20T23:53:23.725Z,87.00
2019-06-20T23:55:58.279Z,86.83
2019-06-20T23:58:32.809Z,86.82
